Time;durP1;ratioP1;P1;durP2;ratioP2;P2;SDS_P1;SDS_P2;PMS_P1;PMS_P2;Temp;Humidity;BMP_temperature;BMP_pressure;BME280_temperature;BME280_humidity;BME280_pressure;Samples;Min_cycle;Max_cycle;Signal;HPM_P1;HPM_P2
2022/03/03 00:01:13;;;;;;;19.30;12.43;;;3.80;93.60;;;;;;5008466;28;20049;-68
2022/03/03 00:03:39;;;;;;;24.77;12.27;;;;;;;;;;5008583;28;20099;-68
2022/03/03 00:06:04;;;;;;;17.40;11.67;;;3.80;97.90;;;;;;5004619;28;20403;-68
2022/03/03 00:08:30;;;;;;;19.20;11.77;;;3.70;98.10;;;;;;5009493;28;20040;-68
2022/03/03 00:10:55;;;;;;;19.70;11.83;;;3.70;98.20;;;;;;5009724;28;20125;-68
2022/03/03 00:13:21;;;;;;;16.13;11.53;;;3.90;98.30;;;;;;5012623;28;20053;-68
2022/03/03 00:15:47;;;;;;;20.97;12.60;;;;;;;;;;5012334;28;20502;-68
2022/03/03 00:18:12;;;;;;;21.13;13.63;;;3.70;98.50;;;;;;5003899;28;20105;-68
2022/03/03 00:20:38;;;;;;;21.73;13.93;;;3.50;98.50;;;;;;5006977;28;20026;-68
2022/03/03 00:23:04;;;;;;;16.73;11.07;;;;;;;;;;5013166;28;20075;-67
2022/03/03 00:25:29;;;;;;;19.03;11.80;;;3.50;98.60;;;;;;5013136;28;20038;-67
2022/03/03 00:27:55;;;;;;;20.70;12.27;;;;;;;;;;5000637;28;20040;-67
2022/03/03 00:30:20;;;;;;;19.57;10.73;;;3.60;98.70;;;;;;4994080;28;20030;-67
2022/03/03 00:32:46;;;;;;;19.83;14.63;;;;;;;;;;4994843;28;20038;-67
2022/03/03 00:35:12;;;;;;;19.80;12.63;;;3.50;98.90;;;;;;5000725;28;20025;-67
2022/03/03 00:37:39;;;;;;;17.70;12.03;;;;;;;;;;5013171;28;20088;-67
2022/03/03 00:40:05;;;;;;;20.80;13.37;;;3.40;92.20;;;;;;5011892;28;20510;-67
2022/03/03 00:42:32;;;;;;;17.30;10.80;;;;;;;;;;4993842;28;20038;-67
2022/03/03 00:44:57;;;;;;;21.63;13.50;;;3.20;92.00;;;;;;4993190;28;20045;-67
2022/03/03 00:47:23;;;;;;;23.53;13.37;;;3.60;99.40;;;;;;4996526;28;20026;-67
2022/03/03 00:49:49;;;;;;;20.80;12.37;;;;;;;;;;5001101;28;20129;-67
2022/03/03 00:52:14;;;;;;;25.47;14.33;;;3.30;99.00;;;;;;4993362;28;20030;-67
2022/03/03 00:54:40;;;;;;;20.07;14.33;;;3.20;99.70;;;;;;5002570;28;20030;-67
2022/03/03 00:57:06;;;;;;;22.17;15.00;;;3.40;99.70;;;;;;5004560;28;20033;-67
2022/03/03 00:59:31;;;;;;;20.63;12.20;;;3.30;99.60;;;;;;5012781;28;20030;-67
2022/03/03 01:01:57;;;;;;;23.87;15.13;;;;;;;;;;5001750;28;20034;-67
2022/03/03 01:04:23;;;;;;;21.53;14.33;;;3.10;99.70;;;;;;4993297;28;20518;-68
2022/03/03 01:06:49;;;;;;;21.00;14.70;;;3.20;92.80;;;;;;4996996;28;20062;-67
2022/03/03 01:09:15;;;;;;;23.87;14.20;;;3.10;99.90;;;;;;4993200;28;20109;-67
2022/03/03 01:11:41;;;;;;;22.13;12.70;;;;;;;;;;4998322;28;20145;-67
2022/03/03 01:14:06;;;;;;;23.97;14.50;;;3.00;99.90;;;;;;5012525;28;20100;-67
2022/03/03 01:16:32;;;;;;;22.20;13.77;;;;;;;;;;5002512;28;20441;-66
2022/03/03 01:18:59;;;;;;;23.87;12.67;;;2.90;99.90;;;;;;5006198;28;20029;-67
2022/03/03 01:21:24;;;;;;;20.50;13.20;;;;;;;;;;4991991;28;20065;-67
2022/03/03 01:23:50;;;;;;;18.40;12.87;;;2.70;99.90;;;;;;5011611;28;20057;-67
2022/03/03 01:26:17;;;;;;;20.03;12.87;;;2.70;93.80;;;;;;5011838;28;20041;-67
2022/03/03 01:28:42;;;;;;;19.60;12.33;;;2.60;96.40;;;;;;4993484;28;20030;-67
2022/03/03 01:31:08;;;;;;;19.87;12.47;;;2.30;99.50;;;;;;4975070;28;20498;-67
2022/03/03 01:33:34;;;;;;;20.17;11.90;;;2.70;97.50;;;;;;4993758;28;20035;-67
2022/03/03 01:35:59;;;;;;;24.37;13.40;;;;;;;;;;5005084;28;20033;-66
2022/03/03 01:38:25;;;;;;;23.73;13.60;;;;;;;;;;5011958;28;20594;-66
2022/03/03 01:40:51;;;;;;;20.00;12.63;;;;;;;;;;5010639;28;20765;-67
2022/03/03 01:43:17;;;;;;;20.37;12.60;;;;;;;;;;4996498;28;20399;-67
2022/03/03 01:45:43;;;;;;;20.23;12.90;;;;;;;;;;4991915;28;20042;-67
2022/03/03 01:48:09;;;;;;;19.43;12.90;;;2.40;99.90;;;;;;5000584;28;20057;-67
2022/03/03 01:50:34;;;;;;;23.70;14.40;;;2.40;99.90;;;;;;4997571;28;20446;-67
2022/03/03 01:53:00;;;;;;;21.30;12.60;;;;;;;;;;5004421;28;20061;-67
2022/03/03 01:55:26;;;;;;;24.27;13.70;;;2.40;99.90;;;;;;5011423;28;20398;-67
2022/03/03 01:57:52;;;;;;;25.70;15.07;;;2.20;99.90;;;;;;4999676;28;20035;-67
2022/03/03 02:00:18;;;;;;;22.23;14.03;;;2.40;99.90;;;;;;4992311;28;20027;-67
2022/03/03 02:02:45;;;;;;;25.27;14.80;;;2.30;99.90;;;;;;4991701;28;20105;-67
2022/03/03 02:05:11;;;;;;;22.80;14.47;;;;;;;;;;4991291;28;20045;-68
2022/03/03 02:07:37;;;;;;;25.53;14.33;;;;;;;;;;4991870;28;20026;-67
2022/03/03 02:10:04;;;;;;;24.77;12.97;;;2.30;99.90;;;;;;4995452;28;20552;-67
2022/03/03 02:12:30;;;;;;;24.00;14.60;;;2.20;99.70;;;;;;5002509;28;20046;-67
2022/03/03 02:14:56;;;;;;;25.37;14.83;;;2.30;99.90;;;;;;4991538;28;20042;-68
2022/03/03 02:17:22;;;;;;;27.80;16.90;;;2.20;99.90;;;;;;5000409;28;20029;-68
2022/03/03 02:19:48;;;;;;;21.17;13.93;;;;;;;;;;4991580;28;20046;-67
2022/03/03 02:22:13;;;;;;;24.53;13.87;;;2.30;99.90;;;;;;4997872;28;20041;-67
2022/03/03 02:24:39;;;;;;;28.67;16.60;;;2.20;97.30;;;;;;5010731;28;20177;-67
2022/03/03 02:27:06;;;;;;;27.97;16.37;;;2.10;99.90;;;;;;5005475;28;20121;-67
2022/03/03 02:29:33;;;;;;;24.67;15.60;;;2.00;97.30;;;;;;4992813;28;20041;-67
2022/03/03 02:32:00;;;;;;;27.37;15.87;;;2.20;99.60;;;;;;4992013;28;20038;-67
2022/03/03 02:34:26;;;;;;;23.30;15.60;;;2.20;98.00;;;;;;5000451;28;20419;-67
2022/03/03 02:36:51;;;;;;;24.73;15.27;;;2.10;99.90;;;;;;5010293;28;20128;-67
2022/03/03 02:39:17;;;;;;;23.70;16.80;;;2.10;99.90;;;;;;5010941;28;20025;-67
2022/03/03 02:41:43;;;;;;;27.47;16.03;;;;;;;;;;4994557;28;20065;-67
2022/03/03 02:44:09;;;;;;;26.97;15.97;;;1.90;99.90;;;;;;5008579;28;20064;-67
2022/03/03 02:46:35;;;;;;;25.50;14.67;;;;;;;;;;4975036;28;20034;-67
2022/03/03 02:49:00;;;;;;;21.37;14.30;;;1.80;99.90;;;;;;5002638;28;20038;-67
2022/03/03 02:51:26;;;;;;;27.33;17.20;;;1.90;99.90;;;;;;5010323;28;20438;-67
2022/03/03 02:53:52;;;;;;;26.00;17.07;;;1.90;99.90;;;;;;5002515;28;20061;-68
2022/03/03 02:56:17;;;;;;;24.13;14.53;;;2.00;99.90;;;;;;4973898;28;20026;-67
2022/03/03 02:58:43;;;;;;;23.87;14.50;;;1.80;99.90;;;;;;5002009;28;20062;-67
2022/03/03 03:01:09;;;;;;;24.97;13.63;;;1.80;97.00;;;;;;5008534;28;20041;-67
2022/03/03 03:03:35;;;;;;;29.90;16.43;;;1.80;99.90;;;;;;5010272;28;20057;-67
2022/03/03 03:06:01;;;;;;;25.07;14.50;;;1.50;99.90;;;;;;5009784;28;20080;-67
2022/03/03 03:08:27;;;;;;;23.73;15.87;;;;;;;;;;5007096;28;20054;-67
2022/03/03 03:10:52;;;;;;;26.97;17.37;;;1.90;99.90;;;;;;4990434;28;20057;-67
2022/03/03 03:13:18;;;;;;;30.60;17.40;;;;;;;;;;4991286;28;20038;-68
2022/03/03 03:15:45;;;;;;;26.80;16.53;;;1.90;99.90;;;;;;4990747;28;20057;-67
2022/03/03 03:18:16;;;;;;;31.03;17.10;;;1.80;97.50;;;;;;5002608;28;20030;-67
2022/03/03 03:20:44;;;;;;;27.07;16.00;;;1.70;99.90;;;;;;4991689;28;20169;-67
2022/03/03 03:23:12;;;;;;;25.63;16.80;;;1.60;99.90;;;;;;4992033;28;20030;-67
2022/03/03 03:25:37;;;;;;;33.53;18.50;;;1.70;99.90;;;;;;5007524;28;20694;-67
2022/03/03 03:28:06;;;;;;;30.30;17.93;;;1.80;99.90;;;;;;4982148;28;20105;-67
2022/03/03 03:30:32;;;;;;;26.50;16.70;;;1.70;98.50;;;;;;4992054;28;20034;-67
2022/03/03 03:32:58;;;;;;;24.40;16.40;;;1.80;99.90;;;;;;4991399;28;20053;-67
2022/03/03 03:35:24;;;;;;;23.63;14.17;;;1.60;98.30;;;;;;5007689;28;20104;-67
2022/03/03 03:37:50;;;;;;;27.40;15.40;;;1.30;99.90;;;;;;5009178;28;20062;-67
2022/03/03 03:40:16;;;;;;;27.70;17.47;;;1.60;99.90;;;;;;4993376;28;20046;-67
2022/03/03 03:42:41;;;;;;;28.10;16.87;;;1.50;99.90;;;;;;5000598;28;20029;-67
2022/03/03 03:45:09;;;;;;;26.07;16.80;;;1.60;99.90;;;;;;5010436;28;20099;-69
2022/03/03 03:47:35;;;;;;;26.97;18.00;;;1.70;99.90;;;;;;5004241;28;20030;-67
2022/03/03 03:50:04;;;;;;;28.97;16.67;;;1.40;99.90;;;;;;4992714;28;20045;-67
2022/03/03 03:52:30;;;;;;;23.60;14.93;;;1.60;99.90;;;;;;4993920;28;20097;-67
2022/03/03 03:54:55;;;;;;;24.83;17.00;;;1.40;99.90;;;;;;4994592;28;20464;-67
2022/03/03 03:57:21;;;;;;;26.20;15.50;;;1.30;99.90;;;;;;5001355;28;20466;-67
2022/03/03 03:59:47;;;;;;;27.83;17.57;;;1.40;99.90;;;;;;4997870;28;20038;-67
2022/03/03 04:02:13;;;;;;;23.73;15.70;;;;;;;;;;4999810;28;20518;-67
2022/03/03 04:04:39;;;;;;;22.27;14.27;;;;;;;;;;4999216;28;20364;-67
2022/03/03 04:07:04;;;;;;;25.07;15.37;;;1.40;99.90;;;;;;4993169;28;20034;-67
2022/03/03 04:09:30;;;;;;;27.73;18.67;;;;;;;;;;4994149;28;20034;-67
2022/03/03 04:11:56;;;;;;;27.17;17.63;;;;;;;;;;4993077;28;20042;-67
2022/03/03 04:14:22;;;;;;;28.43;18.27;;;;;;;;;;4993851;28;20387;-67
2022/03/03 04:16:48;;;;;;;28.47;18.23;;;;;;;;;;4996110;28;20102;-67
2022/03/03 04:19:14;;;;;;;23.13;15.90;;;;;;;;;;5002674;28;20034;-67
2022/03/03 04:21:40;;;;;;;24.60;15.07;;;1.20;99.90;;;;;;5011985;28;20414;-67
2022/03/03 04:24:06;;;;;;;26.60;15.87;;;1.20;99.90;;;;;;5012494;28;20037;-67
2022/03/03 04:26:33;;;;;;;32.97;18.53;;;1.40;99.90;;;;;;5012022;28;20505;-67
2022/03/03 04:28:58;;;;;;;24.90;15.47;;;1.10;99.90;;;;;;4997930;28;20030;-66
2022/03/03 04:31:24;;;;;;;26.10;16.90;;;1.10;99.90;;;;;;5011278;28;20356;-67
2022/03/03 04:33:50;;;;;;;25.77;16.33;;;1.00;99.90;;;;;;5006032;28;20026;-67
2022/03/03 04:36:16;;;;;;;27.37;16.87;;;;;;;;;;4992942;28;20029;-66
2022/03/03 04:38:42;;;;;;;27.47;16.97;;;1.00;99.90;;;;;;5011390;28;20402;-66
2022/03/03 04:41:08;;;;;;;24.67;16.10;;;;;;;;;;4995929;28;20054;-66
2022/03/03 04:43:34;;;;;;;26.37;16.17;;;1.30;99.90;;;;;;5012616;28;20057;-66
2022/03/03 04:46:00;;;;;;;27.43;17.10;;;;;;;;;;5012094;28;20037;-67
2022/03/03 04:48:29;;;;;;;25.67;16.33;;;1.10;99.90;;;;;;5012148;28;20034;-66
2022/03/03 04:50:57;;;;;;;27.70;15.97;;;1.20;99.90;;;;;;5002960;28;20388;-66
2022/03/03 04:53:23;;;;;;;25.23;16.43;;;1.20;99.90;;;;;;5008596;28;20186;-66
2022/03/03 04:55:48;;;;;;;23.20;15.10;;;;;;;;;;4992386;28;20554;-66
2022/03/03 04:58:14;;;;;;;27.97;18.13;;;;;;;;;;4991822;28;20038;-67
2022/03/03 05:00:40;;;;;;;24.20;15.87;;;1.20;99.90;;;;;;5000687;28;20052;-66
2022/03/03 05:03:06;;;;;;;30.67;16.80;;;;;;;;;;5010582;28;20125;-66
2022/03/03 05:05:32;;;;;;;27.23;17.57;;;;;;;;;;4974789;28;20046;-66
2022/03/03 05:07:58;;;;;;;26.17;16.13;;;;;;;;;;5011345;28;20025;-66
2022/03/03 05:10:23;;;;;;;25.03;15.97;;;1.00;99.90;;;;;;5006874;28;20038;-66
2022/03/03 05:12:49;;;;;;;25.80;15.53;;;;;;;;;;5000167;28;20050;-66
2022/03/03 05:15:15;;;;;;;26.43;15.70;;;0.90;99.90;;;;;;4992786;28;20038;-67
2022/03/03 05:17:41;;;;;;;26.27;16.90;;;;;;;;;;5002626;28;20389;-68
2022/03/03 05:20:07;;;;;;;26.70;18.47;;;1.00;99.90;;;;;;4996361;28;20037;-67
2022/03/03 05:22:33;;;;;;;31.27;18.03;;;;;;;;;;5002582;28;20077;-68
2022/03/03 05:24:58;;;;;;;27.47;16.27;;;0.80;99.90;;;;;;5008352;28;20307;-67
2022/03/03 05:27:24;;;;;;;25.40;16.77;;;;;;;;;;5004044;28;20081;-67
2022/03/03 05:29:50;;;;;;;29.90;17.90;;;1.10;99.90;;;;;;5000227;28;20029;-68
2022/03/03 05:32:15;;;;;;;30.03;19.27;;;1.10;99.90;;;;;;5000950;28;20132;-68
2022/03/03 05:34:41;;;;;;;23.10;15.97;;;0.90;99.90;;;;;;4994883;28;20121;-68
2022/03/03 05:37:07;;;;;;;27.40;16.60;;;;;;;;;;4997355;28;20414;-67
2022/03/03 05:39:33;;;;;;;25.90;15.70;;;0.80;99.90;;;;;;5011525;28;20076;-68
2022/03/03 05:41:59;;;;;;;30.40;18.20;;;0.90;99.90;;;;;;5011014;28;20122;-68
2022/03/03 05:44:27;;;;;;;30.73;17.73;;;0.60;99.90;;;;;;5011077;28;20113;-68
2022/03/03 05:46:53;;;;;;;29.57;19.20;;;0.80;99.90;;;;;;5009716;28;20025;-67
2022/03/03 05:49:21;;;;;;;29.47;18.00;;;1.00;99.90;;;;;;5010991;28;20029;-66
2022/03/03 05:51:47;;;;;;;25.53;16.03;;;;;;;;;;5011076;28;20038;-66
2022/03/03 05:54:12;;;;;;;25.00;15.20;;;0.70;99.90;;;;;;5000807;28;20044;-66
2022/03/03 05:56:39;;;;;;;31.20;17.97;;;0.80;99.90;;;;;;5002354;28;20483;-66
2022/03/03 05:59:12;;;;;;;26.57;17.00;;;0.70;99.90;;;;;;4991484;28;20022;-66
2022/03/03 06:01:41;;;;;;;28.50;18.40;;;0.60;99.90;;;;;;4991513;28;20054;-66
2022/03/03 06:04:09;;;;;;;38.73;19.87;;;1.00;99.90;;;;;;4991329;28;20022;-66
2022/03/03 06:06:37;;;;;;;30.57;18.33;;;0.70;99.90;;;;;;5003120;28;20072;-65
2022/03/03 06:09:04;;;;;;;29.03;17.73;;;0.70;99.90;;;;;;4990345;28;20022;-66
2022/03/03 06:11:30;;;;;;;29.20;16.37;;;0.90;99.90;;;;;;5008106;28;20200;-65
2022/03/03 06:14:07;;;;;;;26.03;17.80;;;0.90;99.90;;;;;;4990682;28;20483;-65
2022/03/03 06:16:33;;;;;;;25.97;16.77;;;0.80;99.90;;;;;;4992049;28;20095;-66
2022/03/03 06:19:00;;;;;;;25.67;16.40;;;;;;;;;;5003916;28;20496;-66
2022/03/03 06:21:25;;;;;;;25.43;17.10;;;0.50;99.90;;;;;;4991961;28;20467;-66
2022/03/03 06:23:51;;;;;;;32.40;19.47;;;0.60;99.90;;;;;;5010325;28;20049;-66
2022/03/03 06:26:19;;;;;;;30.63;17.03;;;0.50;99.90;;;;;;5009902;28;20834;-67
2022/03/03 06:28:46;;;;;;;27.67;19.00;;;0.70;99.90;;;;;;4992089;28;20064;-66
2022/03/03 06:31:12;;;;;;;32.00;18.90;;;0.40;99.90;;;;;;5009096;28;20033;-67
2022/03/03 06:33:39;;;;;;;29.47;19.03;;;0.70;99.90;;;;;;5008168;28;20159;-68
2022/03/03 06:36:05;;;;;;;32.57;19.97;;;0.60;99.90;;;;;;5010174;28;20510;-69
2022/03/03 06:38:31;;;;;;;27.13;16.73;;;0.70;99.90;;;;;;5009582;28;20117;-67
2022/03/03 06:40:57;;;;;;;28.33;18.07;;;;;;;;;;4992116;28;20029;-66
2022/03/03 06:43:29;;;;;;;30.50;19.10;;;0.80;99.90;;;;;;4993615;28;20510;-67
2022/03/03 06:45:56;;;;;;;31.47;20.50;;;;;;;;;;4989832;28;20042;-67
2022/03/03 06:48:22;;;;;;;30.17;18.43;;;0.70;99.90;;;;;;5004662;28;20033;-67
2022/03/03 06:50:54;;;;;;;32.03;19.87;;;0.80;99.90;;;;;;5003231;28;20042;-67
2022/03/03 06:53:28;;;;;;;27.87;18.50;;;0.60;99.90;;;;;;5006716;28;20022;-66
2022/03/03 06:56:05;;;;;;;23.77;15.47;;;0.90;99.90;;;;;;5001593;28;20109;-68
2022/03/03 06:58:32;;;;;;;27.27;17.07;;;0.80;99.90;;;;;;4990651;28;20033;-68
2022/03/03 07:00:58;;;;;;;30.40;17.93;;;;;;;;;;5005722;28;20018;-68
2022/03/03 07:03:25;;;;;;;29.27;19.00;;;0.80;99.90;;;;;;5009573;28;20033;-68
2022/03/03 07:05:51;;;;;;;33.63;18.57;;;0.80;99.90;;;;;;4996801;28;20041;-68
2022/03/03 07:08:19;;;;;;;25.67;17.50;;;1.10;99.90;;;;;;5004271;28;20364;-68
2022/03/03 07:10:47;;;;;;;34.67;19.03;;;0.80;99.90;;;;;;5007081;28;20022;-68
2022/03/03 07:13:16;;;;;;;27.20;17.53;;;0.90;99.90;;;;;;4998781;28;20085;-68
2022/03/03 07:15:47;;;;;;;27.57;17.60;;;0.90;99.90;;;;;;4992847;28;20025;-69
2022/03/03 07:18:18;;;;;;;28.30;17.83;;;0.90;99.90;;;;;;4990415;28;20026;-69
2022/03/03 07:21:05;;;;;;;32.87;20.47;;;1.00;99.90;;;;;;4995688;28;20044;-69
2022/03/03 07:23:46;;;;;;;28.13;18.97;;;1.20;99.90;;;;;;5009572;28;20479;-69
2022/03/03 07:26:13;;;;;;;28.23;17.53;;;1.30;99.90;;;;;;5009103;28;20069;-69
2022/03/03 07:28:44;;;;;;;28.97;18.10;;;1.30;99.90;;;;;;5009005;28;20086;-69
2022/03/03 07:31:15;;;;;;;29.37;18.77;;;1.60;99.90;;;;;;5009498;28;20391;-68
2022/03/03 07:33:52;;;;;;;27.80;17.23;;;1.50;99.90;;;;;;4991915;28;20022;-68
2022/03/03 07:36:23;;;;;;;28.20;17.63;;;1.70;99.90;;;;;;4992064;28;20113;-68
2022/03/03 07:38:59;;;;;;;31.17;18.77;;;1.50;99.90;;;;;;4998703;28;20029;-68
2022/03/03 07:41:27;;;;;;;28.83;18.23;;;1.90;99.90;;;;;;5006778;28;20022;-68
2022/03/03 07:43:54;;;;;;;29.80;18.03;;;1.90;99.90;;;;;;4989076;28;20026;-68
2022/03/03 07:46:21;;;;;;;24.60;16.20;;;1.90;99.90;;;;;;4990237;28;20034;-68
2022/03/03 07:48:47;;;;;;;26.50;17.50;;;;;;;;;;4986920;28;20034;-68
2022/03/03 07:51:13;;;;;;;28.47;16.07;;;2.30;99.90;;;;;;5008616;28;20113;-69
2022/03/03 07:53:39;;;;;;;26.80;17.80;;;;;;;;;;4989964;28;20543;-68
2022/03/03 07:56:07;;;;;;;24.53;17.03;;;2.30;99.90;;;;;;4998308;28;20498;-67
2022/03/03 07:58:36;;;;;;;25.13;17.23;;;2.60;99.90;;;;;;4993884;28;20038;-67
2022/03/03 08:01:03;;;;;;;26.20;16.83;;;2.40;99.90;;;;;;5004754;28;20038;-67
2022/03/03 08:03:29;;;;;;;24.97;15.00;;;;;;;;;;5006343;28;20443;-67
2022/03/03 08:05:56;;;;;;;21.00;14.43;;;2.60;99.90;;;;;;5000971;28;20042;-68
2022/03/03 08:08:25;;;;;;;27.03;16.77;;;2.80;99.90;;;;;;5008175;28;20030;-67
2022/03/03 08:10:56;;;;;;;27.17;17.10;;;2.90;99.90;;;;;;5008362;28;20083;-69
2022/03/03 08:13:26;;;;;;;24.43;15.20;;;2.90;99.30;;;;;;4991413;28;20058;-68
2022/03/03 08:15:52;;;;;;;23.37;15.03;;;3.10;99.90;;;;;;4991359;28;20030;-68
2022/03/03 08:18:20;;;;;;;24.80;16.47;;;2.90;99.10;;;;;;4994712;28;20037;-68
2022/03/03 08:20:45;;;;;;;26.63;16.20;;;3.50;99.90;;;;;;4987620;28;20037;-67
2022/03/03 08:23:11;;;;;;;23.57;14.60;;;3.20;99.90;;;;;;4987096;28;20549;-67
2022/03/03 08:25:37;;;;;;;27.37;15.87;;;3.20;99.90;;;;;;4993927;28;20038;-67
2022/03/03 08:28:04;;;;;;;25.40;16.37;;;3.10;99.90;;;;;;4985843;28;20053;-68
2022/03/03 08:30:30;;;;;;;22.27;14.53;;;3.50;99.50;;;;;;5007594;28;20033;-68
2022/03/03 08:33:18;;;;;;;20.90;13.93;;;3.50;99.90;;;;;;4994697;28;20103;-66
2022/03/03 08:35:56;;;;;;;22.27;13.47;;;3.50;99.90;;;;;;5006825;28;20068;-67
2022/03/03 08:38:31;;;;;;;21.63;14.83;;;3.50;99.90;;;;;;5013147;28;20030;-67
2022/03/03 08:40:59;;;;;;;21.77;14.83;;;3.80;98.50;;;;;;5000961;28;20475;-67
2022/03/03 08:43:27;;;;;;;26.13;16.70;;;3.80;98.10;;;;;;5006462;28;20518;-67
2022/03/03 08:45:57;;;;;;;22.27;14.97;;;3.90;97.70;;;;;;4998896;28;20053;-68
2022/03/03 08:48:26;;;;;;;24.57;16.80;;;4.20;99.90;;;;;;5001352;28;20026;-68
2022/03/03 08:50:51;;;;;;;24.93;14.97;;;4.30;99.90;;;;;;5000041;28;20097;-68
2022/03/03 08:53:17;;;;;;;26.60;16.57;;;4.10;99.90;;;;;;4995924;28;20022;-68
2022/03/03 08:55:43;;;;;;;24.97;16.27;;;;;;;;;;5011403;28;20442;-68
2022/03/03 08:58:10;;;;;;;26.50;15.20;;;4.60;99.90;;;;;;5006311;28;20025;-68
2022/03/03 09:00:36;;;;;;;23.27;15.30;;;4.50;99.90;;;;;;5002205;28;20445;-68
2022/03/03 09:03:03;;;;;;;22.93;16.83;;;4.80;96.20;;;;;;4999681;28;20014;-68
2022/03/03 09:05:28;;;;;;;24.13;15.67;;;4.90;99.90;;;;;;5009294;28;20145;-68
2022/03/03 09:07:54;;;;;;;26.53;16.63;;;5.20;99.90;;;;;;5004416;28;20111;-68
2022/03/03 09:10:19;;;;;;;28.40;17.73;;;5.00;99.90;;;;;;5002964;28;20037;-68
2022/03/03 09:12:45;;;;;;;23.93;16.00;;;;;;;;;;4992575;28;20050;-67
2022/03/03 09:15:11;;;;;;;24.60;18.60;;;5.30;97.10;;;;;;4994312;28;20034;-68
2022/03/03 09:17:37;;;;;;;24.53;17.23;;;5.40;94.70;;;;;;5008611;28;20034;-67
2022/03/03 09:20:06;;;;;;;22.27;15.93;;;5.40;99.90;;;;;;5011592;28;20022;-68
2022/03/03 09:22:32;;;;;;;22.87;14.77;;;5.30;99.90;;;;;;5009532;28;20034;-67
2022/03/03 09:24:58;;;;;;;23.90;16.43;;;5.40;99.90;;;;;;5009546;28;20105;-67
2022/03/03 09:27:23;;;;;;;20.53;15.50;;;5.30;99.90;;;;;;5011568;28;20034;-68
2022/03/03 09:29:49;;;;;;;19.87;15.10;;;5.50;94.00;;;;;;5011044;28;20522;-68
2022/03/03 09:32:15;;;;;;;23.27;14.40;;;5.40;99.90;;;;;;5008599;28;20037;-69
2022/03/03 09:34:41;;;;;;;21.07;14.27;;;;;;;;;;5011405;28;20394;-68
2022/03/03 09:37:07;;;;;;;22.70;15.80;;;;;;;;;;5005466;28;20034;-68
2022/03/03 09:39:32;;;;;;;22.00;14.23;;;5.80;99.90;;;;;;4991565;28;20026;-68
2022/03/03 09:41:58;;;;;;;20.00;15.07;;;5.60;97.30;;;;;;4998011;28;20064;-68
2022/03/03 09:44:25;;;;;;;25.07;15.37;;;5.70;99.90;;;;;;5002250;28;20018;-69
2022/03/03 09:46:51;;;;;;;22.30;16.13;;;5.80;96.80;;;;;;5008243;28;20041;-67
2022/03/03 09:49:17;;;;;;;23.53;15.90;;;6.00;99.90;;;;;;5011355;28;20040;-67
2022/03/03 09:51:43;;;;;;;20.97;13.43;;;6.30;99.80;;;;;;4993068;28;20069;-67
2022/03/03 09:54:09;;;;;;;18.10;12.00;;;6.30;99.90;;;;;;4996577;28;20064;-67
2022/03/03 09:56:36;;;;;;;18.90;12.70;;;6.20;95.30;;;;;;5008812;28;20094;-67
2022/03/03 09:59:03;;;;;;;19.93;13.30;;;6.30;99.70;;;;;;4999814;28;20029;-67
2022/03/03 10:01:29;;;;;;;17.73;13.40;;;6.40;99.90;;;;;;5011113;28;20025;-67
2022/03/03 10:03:58;;;;;;;16.73;11.90;;;6.30;99.80;;;;;;5011508;28;20091;-67
2022/03/03 10:06:24;;;;;;;19.97;14.10;;;6.50;99.30;;;;;;5010969;28;20033;-67
2022/03/03 10:08:50;;;;;;;22.60;15.27;;;6.60;98.70;;;;;;5004268;28;20029;-67
2022/03/03 10:11:16;;;;;;;19.23;15.17;;;6.70;94.70;;;;;;5007672;28;20034;-67
2022/03/03 10:13:53;;;;;;;19.60;12.77;;;6.70;98.70;;;;;;4996740;28;20022;-68
2022/03/03 10:16:23;;;;;;;20.33;14.63;;;7.20;97.70;;;;;;5011212;28;20021;-68
2022/03/03 10:18:59;;;;;;;19.67;13.37;;;6.90;93.00;;;;;;5010208;28;20160;-68
2022/03/03 10:21:27;;;;;;;20.63;13.00;;;6.90;97.90;;;;;;5010873;28;20029;-67
2022/03/03 10:23:52;;;;;;;23.97;14.83;;;7.00;97.50;;;;;;5009958;28;20722;-67
2022/03/03 10:26:18;;;;;;;18.77;13.27;;;;;;;;;;5010476;28;20038;-67
2022/03/03 10:28:48;;;;;;;16.20;13.50;;;7.00;97.80;;;;;;4992872;28;20018;-68
2022/03/03 10:31:16;;;;;;;20.33;12.80;;;;;;;;;;5002116;28;20549;-67
2022/03/03 10:33:47;;;;;;;17.27;12.33;;;7.20;98.10;;;;;;4998681;28;20032;-67
2022/03/03 10:36:24;;;;;;;18.23;12.13;;;7.10;98.10;;;;;;5002739;28;20029;-67
2022/03/03 10:38:50;;;;;;;16.13;13.17;;;;;;;;;;4990338;28;20022;-67
2022/03/03 10:41:39;;;;;;;16.63;12.23;;;7.20;97.80;;;;;;5004530;28;20047;-67
2022/03/03 10:44:12;;;;;;;20.13;13.50;;;7.40;97.70;;;;;;5010523;28;20030;-67
2022/03/03 10:46:41;;;;;;;19.53;14.00;;;7.30;97.60;;;;;;4993231;28;20104;-67
2022/03/03 10:49:20;;;;;;;15.93;12.50;;;7.30;89.70;;;;;;5009874;28;20022;-67
2022/03/03 10:51:46;;;;;;;17.37;13.37;;;;;;;;;;5002547;28;20519;-67
2022/03/03 10:54:12;;;;;;;18.60;13.53;;;7.30;97.50;;;;;;4998200;28;20026;-68
2022/03/03 10:56:46;;;;;;;16.23;12.63;;;7.40;90.00;;;;;;5001263;28;20022;-67
2022/03/03 10:59:21;;;;;;;18.77;13.40;;;7.50;97.70;;;;;;4991121;28;20030;-67
2022/03/03 11:01:47;;;;;;;17.03;11.60;;;;;;;;;;4996208;28;20112;-67
2022/03/03 11:04:18;;;;;;;16.83;13.03;;;7.50;89.30;;;;;;5010067;28;20033;-67
2022/03/03 11:06:45;;;;;;;17.33;11.50;;;7.40;97.30;;;;;;5008044;28;20293;-66
2022/03/03 11:09:10;;;;;;;13.80;11.33;;;7.50;97.20;;;;;;5002132;28;20018;-66
2022/03/03 11:11:37;;;;;;;15.30;11.93;;;7.40;97.10;;;;;;5004936;28;20093;-67
2022/03/03 11:14:02;;;;;;;18.03;13.23;;;7.70;97.10;;;;;;5004004;28;20427;-67
2022/03/03 11:16:28;;;;;;;14.67;11.47;;;7.60;97.10;;;;;;5009878;28;20034;-67
2022/03/03 11:18:54;;;;;;;15.93;12.33;;;7.70;96.90;;;;;;5009481;28;20026;-67
2022/03/03 11:21:20;;;;;;;17.83;12.67;;;7.60;96.60;;;;;;5009509;28;20045;-67
2022/03/03 11:23:58;;;;;;;16.27;12.70;;;7.90;96.60;;;;;;5001272;28;20104;-67
2022/03/03 11:26:39;;;;;;;17.17;12.90;;;7.90;96.30;;;;;;5010030;28;20034;-67
2022/03/03 11:29:15;;;;;;;17.40;12.37;;;8.00;91.00;;;;;;5004591;28;20025;-67
2022/03/03 11:31:43;;;;;;;16.03;12.27;;;8.30;95.30;;;;;;5005483;28;20038;-66
2022/03/03 11:34:24;;;;;;;18.43;11.93;;;8.30;95.50;;;;;;5009398;28;20026;-67
2022/03/03 11:37:07;;;;;;;14.30;11.33;;;8.10;95.20;;;;;;5008871;28;20467;-67
2022/03/03 11:39:35;;;;;;;12.77;9.40;;;8.30;84.60;;;;;;5006520;28;20030;-67
2022/03/03 11:42:26;;;;;;;14.73;10.40;;;8.50;95.10;;;;;;4989610;28;20502;-67
2022/03/03 11:44:58;;;;;;;16.60;13.07;;;8.30;86.80;;;;;;4997031;28;20040;-67
2022/03/03 11:47:31;;;;;;;16.00;12.33;;;8.30;94.20;;;;;;5009624;28;20417;-69
2022/03/03 11:50:09;;;;;;;15.77;12.60;;;8.40;93.80;;;;;;5008803;28;20026;-68
2022/03/03 11:52:37;;;;;;;14.40;12.07;;;8.70;93.50;;;;;;5007897;28;20038;-68
2022/03/03 11:55:30;;;;;;;13.97;10.27;;;8.60;93.50;;;;;;4989857;28;20418;-68
2022/03/03 11:58:00;;;;;;;13.60;10.13;;;8.70;93.30;;;;;;4990013;28;20022;-68
2022/03/03 12:00:26;;;;;;;15.00;12.10;;;8.80;92.70;;;;;;5003994;28;20348;-68
2022/03/03 12:02:59;;;;;;;13.43;10.30;;;8.80;84.50;;;;;;5008990;28;20026;-68
2022/03/03 12:05:28;;;;;;;14.23;9.80;;;8.70;86.90;;;;;;5008781;28;20061;-70
2022/03/03 12:08:13;;;;;;;15.33;11.70;;;8.60;92.70;;;;;;5008379;28;20026;-68
2022/03/03 12:10:57;;;;;;;14.40;10.50;;;8.70;81.00;;;;;;5003781;28;20037;-68
2022/03/03 12:13:41;;;;;;;14.60;11.10;;;8.70;83.30;;;;;;5007698;28;20038;-68
2022/03/03 12:16:15;;;;;;;12.27;8.93;;;8.70;92.90;;;;;;5011530;28;20060;-68
2022/03/03 12:18:46;;;;;;;16.10;11.60;;;8.80;92.20;;;;;;5012617;28;20026;-67
2022/03/03 12:21:42;;;;;;;12.87;10.43;;;9.10;92.30;;;;;;5012598;28;20030;-69
2022/03/03 12:24:17;;;;;;;17.53;12.10;;;9.10;92.20;;;;;;5004209;28;20784;-68
2022/03/03 12:26:55;;;;;;;16.47;11.70;;;8.90;75.30;;;;;;5012787;28;20049;-67
2022/03/03 12:29:49;;;;;;;11.90;9.77;;;9.20;80.40;;;;;;5013080;28;20033;-68
2022/03/03 12:32:35;;;;;;;11.80;9.37;;;9.10;86.60;;;;;;5009931;28;20038;-68
2022/03/03 12:35:08;;;;;;;13.00;9.27;;;9.30;91.50;;;;;;4991078;28;20057;-68
2022/03/03 12:37:45;;;;;;;10.20;8.60;;;9.10;78.30;;;;;;5005515;28;20036;-68
2022/03/03 12:40:12;;;;;;;12.23;9.33;;;9.10;77.70;;;;;;5012339;28;20104;-68
2022/03/03 12:42:44;;;;;;;12.83;9.73;;;9.10;91.20;;;;;;5012962;28;20028;-68
2022/03/03 12:45:13;;;;;;;11.50;9.07;;;9.10;77.00;;;;;;5012180;28;20040;-67
2022/03/03 12:47:41;;;;;;;14.30;10.63;;;9.20;76.20;;;;;;4990970;28;20022;-68
2022/03/03 12:50:14;;;;;;;12.40;10.70;;;9.30;90.80;;;;;;5012382;28;20034;-68
2022/03/03 12:52:42;;;;;;;18.33;12.03;;;9.20;90.00;;;;;;5011809;28;20045;-68
2022/03/03 12:55:09;;;;;;;14.20;11.90;;;9.30;90.10;;;;;;5012319;28;20037;-67
2022/03/03 12:57:37;;;;;;;10.20;8.53;;;9.50;90.50;;;;;;4995412;28;20627;-68
2022/03/03 13:00:13;;;;;;;13.93;10.97;;;9.20;90.20;;;;;;5011908;28;20044;-69